Aérodrome :
LOGIN :

S'inscrire | Disclaimer

   EN    FR    IT 

 










Légende :    VFR   VFR Marginal   IFR   IFR Intensif   IFR Très Intensif
Visi : 
Plafond : 
>= 8 km
>= 3000ft
5 à 8 km
1000 à 3000 ft
1500m à 5 km
500 à 1000 ft
800 à 1500m
200 à 500 ft
< 800m
< 200 ft
Symboles :   Orages  Brouillard  Fortes neiges  Fortes précipitations  Vent > 20 kt
SIGMETs :   Divers  Orages  Givrage  Turbulence  Onde Orograph.  Cendres Volcan.






- Altitude de l'aérodrome : 36 ft
- Code IATA : RIX


EVRA - Riga

DERNIER METAR :
  • 090720Z 23007KT CAVOK 09/M00 Q1011 NOSIG

METARs EXPIRÉS :
  • 090650Z 22008KT CAVOK 09/M00 Q1011 NOSIG
  • 090620Z 22007KT 190V250 CAVOK 08/M00 Q1011 NOSIG
  • 090550Z 23004KT CAVOK 08/M00 Q1011 NOSIG
  • 090520Z 22006KT 9999 FEW050CB 07/M00 Q1011 NOSIG
  • 090450Z 23007KT 9999 FEW050CB 07/M00 Q1012 NOSIG

TAF TAF EVRA
Valide du 09 à 06h jusqu'au 10 à 06h UTC


090501Z 0906/1006 22007KT CAVOK
BECMG 0910/0912 33010KT
TEMPO 0915/0918 33015G28KT



MET'MAP, la Météo Aéronautique d'un coup d'oeil ! - Copyright ORBIFLY Décembre 2007 - Disclaimer

ORBIFLY MET'MAP TEAM :

Programmation & Développement : Alexandra Zaïnal
Sur une idée originale de : Baudouin d'Aumeries
Assistance à la programmation : Marc-Olivier Méhu
Soutien technique & logistique : Manuel Goepfert

Contact : metmap@orbifly.com




SOURCES & CREDITS :

   NOAA